Time;durP1;ratioP1;P1;durP2;ratioP2;P2;SDS_P1;SDS_P2;PMS_P1;PMS_P2;Temp;Humidity;BMP_temperature;BMP_pressure;BME280_temperature;BME280_humidity;BME280_pressure;Samples;Min_cycle;Max_cycle;Signal;HPM_P1;HPM_P2
2019/04/29 00:02:49;;;;;;;7.4;4.2;;;;;;;10.4;61.46094;964.2828;;;;
2019/04/29 00:05:14;;;;;;;6.8;4.2;;;;;;;10.3;62.44434;964.2686;;;;
2019/04/29 00:07:40;;;;;;;4.7;3.8;;;;;;;10.25;62.51855;964.2735;;;;
2019/04/29 00:10:05;;;;;;;5.7;3.7;;;;;;;10.26;62.94141;964.245;;;;
2019/04/29 00:12:30;;;;;;;6.4;4;;;;;;;10.29;62.99121;964.267;;;;
2019/04/29 00:15:16;;;;;;;4.9;3.9;;;;;;;10.3;63.49707;964.2477;;;;
2019/04/29 00:17:27;;;;;;;5.2;3.9;;;;;;;10.33;63.50195;964.2724;;;;
2019/04/29 00:19:55;;;;;;;6.1;3.8;;;;;;;10.32;64.09668;964.3008;;;;
2019/04/29 00:22:12;;;;;;;6;3.9;;;;;;;10.31;64.2373;964.2634;;;;
2019/04/29 00:24:37;;;;;;;6.5;3.8;;;;;;;10.3;63.88477;964.2425;;;;
2019/04/29 00:27:05;;;;;;;4.6;3.7;;;;;;;10.3;63.28711;964.2165;;;;
2019/04/29 00:29:30;;;;;;;6.1;3.9;;;;;;;10.3;63.4502;964.2438;;;;
2019/04/29 00:31:55;;;;;;;5.6;3.9;;;;;;;10.26;63.85352;964.1981;;;;
2019/04/29 00:34:20;;;;;;;4.7;3.7;;;;;;;10.3;63.25098;964.1917;;;;
2019/04/29 00:36:54;;;;;;;7;4.2;;;;;;;10.25;63.87695;964.1564;;;;
2019/04/29 00:39:30;;;;;;;4.9;4;;;;;;;10.25;63.66602;964.2735;;;;
2019/04/29 00:44:06;;;;;;;4.6;3.6;;;;;;;10.16;63.6416;964.2447;;;;
2019/04/29 00:46:29;;;;;;;4.9;3.9;;;;;;;10.15;63.5459;964.2643;;;;
2019/04/29 00:48:55;;;;;;;7.1;4.2;;;;;;;10.14;63.21582;964.2444;;;;
2019/04/29 00:51:20;;;;;;;4.7;3.8;;;;;;;10.13;63.21484;964.3016;;;;
2019/04/29 00:53:47;;;;;;;4.2;3.5;;;;;;;10.14;63.08789;964.2573;;;;
2019/04/29 00:56:12;;;;;;;6.3;4;;;;;;;10.11;63.15527;964.2744;;;;
2019/04/29 00:58:37;;;;;;;6.9;4;;;;;;;10.08;63.5127;964.3276;;;;
2019/04/29 01:01:02;;;;;;;5.5;3.9;;;;;;;10.08;63.38281;964.2717;;;;
2019/04/29 01:03:27;;;;;;;5.6;4;;;;;;;10.07;63.50879;964.2781;;;;
2019/04/29 01:06:13;;;;;;;6.5;4.1;;;;;;;10.01;64.08691;964.2921;;;;
2019/04/29 01:09:00;;;;;;;7.6;4.2;;;;;;;9.99;64.16602;964.2427;;;;
2019/04/29 01:11:26;;;;;;;5.7;4.2;;;;;;;9.95;64.5459;964.2725;;;;
2019/04/29 01:13:50;;;;;;;4.8;3.8;;;;;;;9.94;64.59277;964.2516;;;;
2019/04/29 01:16:27;;;;;;;7.5;4.3;;;;;;;9.91;64.73926;964.2008;;;;
2019/04/29 01:18:53;;;;;;;5.1;4.1;;;;;;;9.88;64.77051;964.2919;;;;
2019/04/29 01:21:19;;;;;;;6.1;3.9;;;;;;;9.82;64.81934;964.2928;;;;
2019/04/29 01:23:44;;;;;;;5.9;4.3;;;;;;;9.82;64.63281;964.3278;;;;
2019/04/29 01:28:52;;;;;;;5.2;3.9;;;;;;;9.84;63.72266;964.2982;;;;
2019/04/29 01:31:25;;;;;;;8.2;4.1;;;;;;;9.83;63.63965;964.3656;;;;
2019/04/29 01:33:50;;;;;;;6.8;4.1;;;;;;;9.81;63.44922;964.4203;;;;
2019/04/29 01:36:32;;;;;;;5.4;4;;;;;;;9.78;63.45605;964.3656;;;;
2019/04/29 01:38:37;;;;;;;5.1;3.8;;;;;;;9.74;63.20508;964.3756;;;;
2019/04/29 01:41:08;;;;;;;6.1;3.9;;;;;;;9.76;62.97363;964.3953;;;;
2019/04/29 01:43:58;;;;;;;5.4;3.9;;;;;;;9.79;63.2002;964.4331;;;;
2019/04/29 01:45:53;;;;;;;5.6;4.2;;;;;;;9.79;63.00195;964.4149;;;;
2019/04/29 01:48:18;;;;;;;6.7;4.2;;;;;;;9.76;62.83301;964.4331;;;;
2019/04/29 01:50:43;;;;;;;5.8;4.2;;;;;;;9.8;62.95703;964.4397;;;;
2019/04/29 01:53:08;;;;;;;5.3;4;;;;;;;9.81;62.64063;964.4476;;;;
2019/04/29 01:55:33;;;;;;;4.9;4;;;;;;;9.84;62.80957;964.4464;;;;
2019/04/29 01:57:59;;;;;;;6.8;4.5;;;;;;;9.84;62.69238;964.4164;;;;
2019/04/29 02:00:25;;;;;;;6.2;4.2;;;;;;;9.82;62.81738;964.3853;;;;
2019/04/29 02:02:50;;;;;;;5.6;4;;;;;;;9.79;62.91895;964.4331;;;;
2019/04/29 02:05:15;;;;;;;6.2;4.5;;;;;;;9.84;62.82129;964.4243;;;;
2019/04/29 02:07:40;;;;;;;6.6;4.3;;;;;;;9.81;62.94629;964.4073;;;;
2019/04/29 02:10:38;;;;;;;5.5;4.2;;;;;;;9.81;63.2041;964.4424;;;;
2019/04/29 02:12:30;;;;;;;6.9;4.2;;;;;;;9.8;63.19043;964.4047;;;;
2019/04/29 02:14:55;;;;;;;6.2;4.4;;;;;;;9.82;63.29883;964.4059;;;;
2019/04/29 02:17:20;;;;;;;6.1;4.3;;;;;;;9.78;63.66797;964.4083;;;;
2019/04/29 02:19:46;;;;;;;8;4.6;;;;;;;9.76;63.80469;964.3953;;;;
2019/04/29 02:22:37;;;;;;;6.7;4.6;;;;;;;9.77;63.93457;964.3669;;;;
2019/04/29 02:24:38;;;;;;;5.7;4.2;;;;;;;9.79;63.75;964.3811;;;;
2019/04/29 02:27:03;;;;;;;6.2;4.2;;;;;;;9.79;64.20605;964.3161;;;;
2019/04/29 02:29:28;;;;;;;6.7;4.5;;;;;;;9.79;64.40527;964.32;;;;
2019/04/29 02:31:53;;;;;;;6.2;4.1;;;;;;;9.81;64.18555;964.3176;;;;
2019/04/29 02:34:18;;;;;;;8;4.6;;;;;;;9.8;63.86816;964.3058;;;;
2019/04/29 02:36:44;;;;;;;7.1;4.5;;;;;;;9.82;63.90723;964.2758;;;;
2019/04/29 02:39:32;;;;;;;8.9;4.7;;;;;;;9.79;63.64453;964.294;;;;
2019/04/29 02:44:21;;;;;;;6.6;4.5;;;;;;;9.77;64.51953;964.233;;;;
2019/04/29 02:46:52;;;;;;;7.5;4.5;;;;;;;9.73;63.36719;964.2042;;;;
2019/04/29 02:49:23;;;;;;;6.4;4.2;;;;;;;9.73;63.85742;964.2184;;;;
2019/04/29 02:51:50;;;;;;;7.8;4.4;;;;;;;9.68;63.5;964.174;;;;
2019/04/29 02:54:13;;;;;;;11.1;4.8;;;;;;;9.67;63.54688;964.1401;;;;
2019/04/29 02:56:39;;;;;;;8.6;4.8;;;;;;;9.67;63.6748;964.1583;;;;
2019/04/29 02:59:04;;;;;;;7;4.2;;;;;;;9.75;63.47461;964.0416;;;;
2019/04/29 03:01:37;;;;;;;7.7;4.7;;;;;;;9.65;63.75195;964.0661;;;;
2019/04/29 03:04:10;;;;;;;8.8;4.5;;;;;;;9.72;63.54004;964.0467;;;;
2019/04/29 03:06:19;;;;;;;8.6;4.6;;;;;;;9.76;63.31348;964.0833;;;;
2019/04/29 03:08:45;;;;;;;8.2;4.7;;;;;;;9.81;63.07422;964.0446;;;;
2019/04/29 03:11:10;;;;;;;8.2;4.8;;;;;;;9.79;62.88574;964.09;;;;
2019/04/29 03:13:37;;;;;;;7.8;4.9;;;;;;;9.81;62.7002;964.0524;;;;
2019/04/29 03:16:03;;;;;;;7.1;4.9;;;;;;;9.65;63.12109;964.0492;;;;
2019/04/29 03:18:30;;;;;;;8.5;4.8;;;;;;;9.75;62.39941;963.9623;;;;
2019/04/29 03:21:38;;;;;;;8.5;4.9;;;;;;;9.79;62.39258;964.0131;;;;
2019/04/29 03:23:20;;;;;;;9.8;5.1;;;;;;;9.71;63.12988;964.0779;;;;
2019/04/29 03:25:43;;;;;;;9.1;4.4;;;;;;;9.66;63.14551;964.0648;;;;
2019/04/29 03:28:08;;;;;;;8.1;4.9;;;;;;;9.65;62.94629;963.992;;;;
2019/04/29 03:30:33;;;;;;;7.5;4.9;;;;;;;9.7;62.81445;963.9715;;;;
2019/04/29 03:32:58;;;;;;;9.3;5.2;;;;;;;9.66;62.88965;963.8778;;;;
2019/04/29 03:35:27;;;;;;;8.3;4.9;;;;;;;9.69;62.90527;963.9648;;;;
2019/04/29 03:37:56;;;;;;;7.4;4.6;;;;;;;9.67;62.66895;963.9283;;;;
2019/04/29 03:40:21;;;;;;;9.3;5.3;;;;;;;9.63;63.07227;963.9996;;;;
2019/04/29 03:42:47;;;;;;;6.4;4.9;;;;;;;9.61;63.01074;963.9996;;;;
2019/04/29 03:45:12;;;;;;;7.7;5;;;;;;;9.61;62.96387;964.0295;;;;
2019/04/29 03:47:49;;;;;;;8.1;4.8;;;;;;;9.59;62.89063;963.9891;;;;
2019/04/29 03:50:19;;;;;;;9.6;5.1;;;;;;;9.63;62.5332;964.0087;;;;
2019/04/29 03:52:50;;;;;;;9;5.1;;;;;;;9.58;62.50391;964.0126;;;;
2019/04/29 03:55:22;;;;;;;8.8;5;;;;;;;9.56;62.85059;964.0513;;;;
2019/04/29 03:57:47;;;;;;;8.6;5.3;;;;;;;9.54;62.87109;963.9941;;;;
2019/04/29 04:02:53;;;;;;;8.1;4.9;;;;;;;9.53;62.8584;964.0824;;;;
2019/04/29 04:05:35;;;;;;;8.1;4.7;;;;;;;9.55;63.03613;964.0489;;;;
2019/04/29 04:07:47;;;;;;;9.2;4.9;;;;;;;9.5;63.13379;964.0355;;;;
2019/04/29 04:10:02;;;;;;;8.3;5.2;;;;;;;9.52;62.98438;964.05;;;;
2019/04/29 04:12:27;;;;;;;7.6;4.8;;;;;;;9.5;63.06543;964.0394;;;;
2019/04/29 04:14:53;;;;;;;8.5;5.2;;;;;;;9.48;63.22461;964.1434;;;;
2019/04/29 04:17:32;;;;;;;9.8;4.9;;;;;;;9.44;63.30176;964.1312;;;;
2019/04/29 04:19:43;;;;;;;7.7;5;;;;;;;9.47;63.30566;964.1707;;;;
2019/04/29 04:22:09;;;;;;;8.3;4.8;;;;;;;9.48;63.13281;964.1509;;;;
2019/04/29 04:24:34;;;;;;;9.7;5.1;;;;;;;9.47;63.30566;964.1746;;;;
2019/04/29 04:26:59;;;;;;;8;5.3;;;;;;;9.46;63.03516;964.2029;;;;
2019/04/29 04:29:25;;;;;;;8.9;5;;;;;;;9.49;63.27344;964.2367;;;;
2019/04/29 04:31:50;;;;;;;9.3;5.3;;;;;;;9.52;62.91406;964.258;;;;
2019/04/29 04:34:15;;;;;;;10.7;5.2;;;;;;;9.55;62.7793;964.2867;;;;
2019/04/29 04:36:40;;;;;;;9.2;5.1;;;;;;;9.53;63.08203;964.2502;;;;
2019/04/29 04:39:06;;;;;;;8.9;5.4;;;;;;;9.47;63.67969;964.3214;;;;
2019/04/29 04:41:31;;;;;;;9;5.2;;;;;;;9.5;63.21582;964.3564;;;;
2019/04/29 04:43:58;;;;;;;9.6;5.6;;;;;;;9.41;63.22656;964.3572;;;;
2019/04/29 04:46:23;;;;;;;8.7;5.3;;;;;;;9.43;63.40527;964.3017;;;;
2019/04/29 04:48:48;;;;;;;8.6;5.2;;;;;;;9.45;63.62988;964.412;;;;
2019/04/29 04:51:14;;;;;;;9;5;;;;;;;9.5;63.02832;964.4604;;;;
2019/04/29 04:53:43;;;;;;;11.4;5.5;;;;;;;9.55;63.18848;964.4426;;;;
2019/04/29 04:56:20;;;;;;;9;5.6;;;;;;;9.54;63.24609;964.4438;;;;
2019/04/29 04:58:46;;;;;;;8.6;5.5;;;;;;;9.51;63.41602;964.4372;;;;
2019/04/29 05:01:18;;;;;;;11.7;5.2;;;;;;;9.5;63.74316;964.4813;;;;
2019/04/29 05:03:43;;;;;;;8.7;5.8;;;;;;;9.47;63.85352;964.4265;;;;
2019/04/29 05:06:11;;;;;;;9.7;6.1;;;;;;;9.51;63.83789;964.4879;;;;
2019/04/29 05:08:36;;;;;;;11.2;5.7;;;;;;;9.62;63.1875;964.465;;;;
2019/04/29 05:11:01;;;;;;;12.3;6.3;;;;;;;9.68;63.23145;964.456;;;;
2019/04/29 05:13:26;;;;;;;11.2;6.3;;;;;;;9.66;62.88965;964.5016;;;;
2019/04/29 05:15:51;;;;;;;9.1;5.6;;;;;;;9.67;63.29004;964.5691;;;;
2019/04/29 05:18:17;;;;;;;9.4;5.8;;;;;;;9.65;63.81055;964.534;;;;
2019/04/29 05:20:42;;;;;;;10.4;5.5;;;;;;;9.62;64.61426;964.5911;;;;
2019/04/29 05:23:08;;;;;;;9.8;6;;;;;;;9.77;63.2793;964.5878;;;;
2019/04/29 05:25:33;;;;;;;11.2;6.1;;;;;;;9.81;63.02832;964.5815;;;;
2019/04/29 05:27:58;;;;;;;11.7;6.3;;;;;;;9.92;62.72754;964.6066;;;;
2019/04/29 05:30:24;;;;;;;14.3;6.3;;;;;;;9.99;62.46777;964.634;;;;
2019/04/29 05:33:00;;;;;;;8.4;5.9;;;;;;;10.05;62.27832;964.6017;;;;
2019/04/29 05:35:55;;;;;;;11.1;6;;;;;;;10.08;62.11816;964.6319;;;;
2019/04/29 05:38:19;;;;;;;12;6.3;;;;;;;10.05;62.20801;964.6707;;;;
2019/04/29 05:40:39;;;;;;;13.4;6.7;;;;;;;9.99;62.51563;964.6939;;;;
2019/04/29 05:43:02;;;;;;;15.6;7.1;;;;;;;9.97;62.79395;964.7015;;;;
2019/04/29 05:45:35;;;;;;;15.4;7.1;;;;;;;10.03;62.68555;964.6876;;;;
2019/04/29 05:48:05;;;;;;;12.7;6.7;;;;;;;10.04;62.51172;964.6722;;;;
2019/04/29 05:50:33;;;;;;;11.6;6.7;;;;;;;10.06;62.28027;964.7605;;;;
2019/04/29 05:53:42;;;;;;;13.2;7;;;;;;;10.08;62.04785;964.775;;;;
2019/04/29 05:55:33;;;;;;;12.4;6.5;;;;;;;10.09;61.88574;964.7813;;;;
2019/04/29 05:58:12;;;;;;;9.5;6.4;;;;;;;10.09;62.20215;964.8464;;;;
2019/04/29 06:00:34;;;;;;;9.8;6.1;;;;;;;10.14;62.47949;964.8895;;;;
2019/04/29 06:03:01;;;;;;;11;6.4;;;;;;;10.17;62.31934;964.8417;;;;
2019/04/29 06:05:26;;;;;;;10.7;6.3;;;;;;;10.12;62.44141;964.8582;;;;
2019/04/29 06:08:59;;;;;;;10.5;6.5;;;;;;;10.21;62.03223;964.9694;;;;
2019/04/29 06:11:25;;;;;;;13.9;6.3;;;;;;;10.2;61.97266;964.9722;;;;
2019/04/29 06:13:50;;;;;;;13.4;6.6;;;;;;;10.18;62.38965;964.9446;;;;
2019/04/29 06:16:15;;;;;;;11.8;6.2;;;;;;;10.26;61.55859;964.9749;;;;
2019/04/29 06:18:40;;;;;;;11.5;6.6;;;;;;;10.26;61.59375;965.0048;;;;
2019/04/29 06:21:05;;;;;;;10.7;6.4;;;;;;;10.22;62.2334;964.959;;;;
2019/04/29 06:23:30;;;;;;;12.6;6.4;;;;;;;10.26;62.30762;965.0269;;;;
2019/04/29 06:25:55;;;;;;;11.7;6.9;;;;;;;10.34;61.75781;964.9426;;;;
2019/04/29 06:28:20;;;;;;;10.9;6.3;;;;;;;10.48;61.7666;964.9975;;;;
2019/04/29 06:30:46;;;;;;;10.1;6.4;;;;;;;10.46;61.40039;964.97;;;;
2019/04/29 06:33:11;;;;;;;12.2;6.5;;;;;;;10.53;61.04785;964.9547;;;;
2019/04/29 06:35:36;;;;;;;10.7;6.2;;;;;;;10.54;61.66895;965.0092;;;;
2019/04/29 06:38:01;;;;;;;15.6;7.1;;;;;;;10.63;60.57031;965.0668;;;;
2019/04/29 06:40:26;;;;;;;12.7;6.7;;;;;;;10.63;61.01465;965.0069;;;;
2019/04/29 06:42:51;;;;;;;11.2;6.6;;;;;;;10.64;60.5;965.0266;;;;
2019/04/29 06:45:22;;;;;;;10.4;6.6;;;;;;;10.7;60.51855;965.0994;;;;
2019/04/29 06:47:47;;;;;;;13.1;6.6;;;;;;;10.76;60.10645;965.0837;;;;
2019/04/29 06:50:13;;;;;;;15.6;7.2;;;;;;;10.67;60.83203;965.0876;;;;
2019/04/29 06:52:39;;;;;;;11.2;6.1;;;;;;;10.63;60.8623;965.0589;;;;
2019/04/29 06:55:04;;;;;;;15.1;6.8;;;;;;;10.72;61.08496;965.0617;;;;
2019/04/29 06:57:30;;;;;;;11.6;6.5;;;;;;;10.89;59.81836;965.0319;;;;
2019/04/29 06:59:55;;;;;;;13;6.7;;;;;;;10.94;59.80273;965.0059;;;;
2019/04/29 07:02:23;;;;;;;11.6;6.5;;;;;;;11;59.1543;965.0775;;;;
2019/04/29 07:04:48;;;;;;;11.2;6.4;;;;;;;11.03;59.83887;965.0722;;;;
2019/04/29 07:07:13;;;;;;;12.7;6.8;;;;;;;11.17;59.21191;965.075;;;;
2019/04/29 07:09:38;;;;;;;12.3;6.7;;;;;;;11.22;59.18359;965.1399;;;;
2019/04/29 07:12:03;;;;;;;12;6.6;;;;;;;11.25;59.09375;965.0789;;;;
2019/04/29 07:14:29;;;;;;;12.2;6.6;;;;;;;11.31;58.5166;965.1022;;;;
2019/04/29 07:16:54;;;;;;;11.5;6.6;;;;;;;11.37;58.65234;965.0876;;;;
2019/04/29 07:19:20;;;;;;;9.6;6.3;;;;;;;11.41;58.33008;965.0551;;;;
2019/04/29 07:21:45;;;;;;;15.3;7.2;;;;;;;11.46;59.2168;965.0772;;;;
2019/04/29 07:24:10;;;;;;;9.9;6.3;;;;;;;11.54;58.8291;965.0706;;;;
2019/04/29 07:26:35;;;;;;;14.1;6.8;;;;;;;11.43;59.44727;965.0605;;;;
2019/04/29 07:29:00;;;;;;;13.9;7;;;;;;;11.52;59.13086;965.0444;;;;
2019/04/29 07:31:26;;;;;;;12.8;7;;;;;;;11.46;58.79395;965.012;;;;
2019/04/29 07:33:53;;;;;;;12.4;6.8;;;;;;;11.66;59.30273;965.0508;;;;
2019/04/29 07:36:18;;;;;;;12.1;6.6;;;;;;;11.85;58.05957;965.0481;;;;
2019/04/29 07:38:45;;;;;;;14.3;6.7;;;;;;;11.99;57.50098;965.1024;;;;
2019/04/29 07:41:10;;;;;;;11;6.4;;;;;;;12.07;56.7832;965.1191;;;;
2019/04/29 07:43:37;;;;;;;9.7;6.6;;;;;;;11.87;58.30859;965.0974;;;;
2019/04/29 07:46:26;;;;;;;11.3;6.7;;;;;;;12.21;57.11816;965.0375;;;;
2019/04/29 07:48:50;;;;;;;13;6.6;;;;;;;12.33;57.2627;965.0734;;;;
2019/04/29 07:51:31;;;;;;;12;7.1;;;;;;;12.36;56.96191;965.068;;;;
2019/04/29 07:54:20;;;;;;;19.4;6.9;;;;;;;12.59;56.33301;965.0041;;;;
2019/04/29 07:56:58;;;;;;;15.7;6.6;;;;;;;12.64;55.31445;965.0352;;;;
2019/04/29 07:59:35;;;;;;;14.4;6.9;;;;;;;12.67;55.00098;964.9906;;;;
2019/04/29 08:02:02;;;;;;;11.4;6.3;;;;;;;12.71;55.54883;965.0739;;;;
2019/04/29 08:04:28;;;;;;;12.4;6.7;;;;;;;12.5;56.37988;965.0257;;;;
2019/04/29 08:06:56;;;;;;;13.1;7;;;;;;;12.68;56.0625;964.9972;;;;
2019/04/29 08:09:21;;;;;;;14;7.1;;;;;;;12.54;56.9502;965.0134;;;;
2019/04/29 08:11:46;;;;;;;13.3;7.4;;;;;;;12.79;56.80664;965.1088;;;;
2019/04/29 08:14:12;;;;;;;12.2;6.9;;;;;;;12.89;55.74805;964.9903;;;;
2019/04/29 08:16:37;;;;;;;13.6;7.4;;;;;;;13.14;54.60059;965.0595;;;;
2019/04/29 08:19:02;;;;;;;13.5;7.6;;;;;;;13.28;54.34668;964.9549;;;;
2019/04/29 08:21:27;;;;;;;13.9;7.9;;;;;;;13.1;54.40625;965.0009;;;;
2019/04/29 08:23:53;;;;;;;13.3;8.1;;;;;;;13.23;54.66992;965.0037;;;;
2019/04/29 08:26:18;;;;;;;13.3;8.3;;;;;;;13.27;55.34766;964.9877;;;;
2019/04/29 08:28:43;;;;;;;14.3;8;;;;;;;13.19;55.46777;964.9583;;;;
2019/04/29 08:31:11;;;;;;;12.8;7.8;;;;;;;13.13;54.83594;965.0033;;;;
2019/04/29 08:33:36;;;;;;;13.5;7.7;;;;;;;12.86;56.78125;964.9867;;;;
2019/04/29 08:36:02;;;;;;;13.6;7;;;;;;;13.16;55.74609;965.0291;;;;
2019/04/29 08:38:27;;;;;;;15.2;7.6;;;;;;;13.16;54.76758;965.0251;;;;
2019/04/29 08:40:52;;;;;;;13.3;6.9;;;;;;;13.36;54.38086;964.9228;;;;
2019/04/29 08:47:23;;;;;;;16;7.7;;;;;;;13.53;52.86719;964.9408;;;;
2019/04/29 08:49:45;;;;;;;15.4;7.7;;;;;;;13.16;53.10645;964.9716;;;;
2019/04/29 08:52:10;;;;;;;15.8;8;;;;;;;13.29;52.76758;964.8699;;;;
2019/04/29 08:54:35;;;;;;;12.3;7.4;;;;;;;13;52.88574;964.9228;;;;
2019/04/29 08:57:01;;;;;;;13.8;7.8;;;;;;;12.96;53.82324;964.9297;;;;
2019/04/29 08:59:27;;;;;;;15.2;7.8;;;;;;;13;53.81738;965;;;;
2019/04/29 09:01:54;;;;;;;15;7.8;;;;;;;12.58;54.97754;965.0028;;;;
2019/04/29 09:04:19;;;;;;;13.7;7.6;;;;;;;12.56;54.97559;964.9835;;;;
2019/04/29 09:06:47;;;;;;;15.2;7.6;;;;;;;12.6;55.90918;964.9858;;;;
2019/04/29 09:09:22;;;;;;;13.4;7.6;;;;;;;12.51;55.47559;965.0019;;;;
2019/04/29 09:11:47;;;;;;;13.7;7;;;;;;;12.15;55.05176;964.9529;;;;
2019/04/29 09:14:12;;;;;;;15.1;6.5;;;;;;;12.24;54.72266;964.8192;;;;
2019/04/29 09:16:38;;;;;;;13.3;6.6;;;;;;;12.17;54.77246;964.8836;;;;
2019/04/29 09:19:03;;;;;;;16;6.6;;;;;;;12.38;53.97559;964.7548;;;;
2019/04/29 09:21:29;;;;;;;12.1;6.8;;;;;;;12.56;53.20898;964.845;;;;
2019/04/29 09:23:54;;;;;;;13.3;6.4;;;;;;;12.66;54.42188;964.7489;;;;
2019/04/29 09:26:25;;;;;;;14.3;6.2;;;;;;;12.64;53.4082;964.8211;;;;
2019/04/29 09:28:44;;;;;;;13.9;6.7;;;;;;;12.84;53.99707;964.89;;;;
2019/04/29 09:31:09;;;;;;;14.3;6.4;;;;;;;12.37;53.52637;964.8488;;;;
2019/04/29 09:33:38;;;;;;;15.3;7.2;;;;;;;12.22;54.61328;964.8665;;;;
2019/04/29 09:36:09;;;;;;;15.2;6.5;;;;;;;12.37;53.65723;964.7952;;;;
2019/04/29 09:38:51;;;;;;;14.5;6.8;;;;;;;12.75;53.04492;964.7838;;;;
2019/04/29 09:41:41;;;;;;;14.9;5.9;;;;;;;13.14;51.27637;964.6135;;;;
2019/04/29 09:44:37;;;;;;;14.2;6.3;;;;;;;13.28;51.62207;964.6373;;;;
2019/04/29 09:46:16;;;;;;;13.6;6.5;;;;;;;13.19;51.14063;964.6183;;;;
2019/04/29 09:48:31;;;;;;;13.2;5.1;;;;;;;13.11;50.65918;964.6766;;;;
2019/04/29 09:51:11;;;;;;;11.1;3.6;;;;;;;12.91;47.80762;964.6728;;;;
2019/04/29 09:53:36;;;;;;;12.3;4.1;;;;;;;13.06;47.97754;964.6324;;;;
2019/04/29 09:56:01;;;;;;;9;3.9;;;;;;;12.93;49.48242;964.6608;;;;
2019/04/29 09:58:26;;;;;;;10.1;4;;;;;;;12.99;47.64063;964.5661;;;;
2019/04/29 10:03:52;;;;;;;10.7;4.8;;;;;;;13.08;49.72363;964.6256;;;;
2019/04/29 10:05:44;;;;;;;12.8;4.6;;;;;;;13.08;49.99609;964.6203;;;;
2019/04/29 10:08:07;;;;;;;12;4.6;;;;;;;13.09;49.78516;964.6531;;;;
2019/04/29 10:10:32;;;;;;;11.5;4.9;;;;;;;13.11;47.99512;964.6451;;;;
2019/04/29 10:12:57;;;;;;;10.9;4.7;;;;;;;13.11;48.68945;964.5681;;;;
2019/04/29 10:15:32;;;;;;;10.2;4.8;;;;;;;12.93;49.57715;964.6739;;;;
2019/04/29 10:17:55;;;;;;;12;5.2;;;;;;;12.56;50.72461;964.5969;;;;
2019/04/29 10:20:27;;;;;;;14.1;5.4;;;;;;;12.27;52.90332;964.6037;;;;
2019/04/29 10:22:38;;;;;;;11.8;5.3;;;;;;;12.51;51.68457;964.592;;;;
2019/04/29 10:25:05;;;;;;;12.1;5;;;;;;;12.57;51.01953;964.5682;;;;
2019/04/29 10:27:30;;;;;;;11.3;4.5;;;;;;;12.76;49.55762;964.5394;;;;
2019/04/29 10:29:55;;;;;;;11.5;5.3;;;;;;;12.91;51.02441;964.5906;;;;
2019/04/29 10:32:20;;;;;;;12.1;5.6;;;;;;;13.1;51.22363;964.4821;;;;
2019/04/29 10:34:45;;;;;;;13.1;5.3;;;;;;;12.89;52.49414;964.5422;;;;
2019/04/29 10:37:10;;;;;;;10.8;5.5;;;;;;;12.95;51.81836;964.4792;;;;
2019/04/29 10:42:01;;;;;;;9.9;4.3;;;;;;;13.3;49.54883;964.416;;;;
2019/04/29 10:44:36;;;;;;;10.6;4.7;;;;;;;12.95;51.24121;964.4661;;;;
2019/04/29 10:47:05;;;;;;;11.2;5.2;;;;;;;12.91;51.67188;964.4952;;;;
2019/04/29 10:49:21;;;;;;;11.5;5.3;;;;;;;12.99;52.16504;964.5023;;;;
2019/04/29 10:51:41;;;;;;;12;5.2;;;;;;;12.94;52.86621;964.5197;;;;
2019/04/29 10:54:06;;;;;;;12.8;5.9;;;;;;;13.15;53.16309;964.5559;;;;
2019/04/29 10:56:50;;;;;;;9.4;5;;;;;;;13.12;54.44434;964.5745;;;;
2019/04/29 10:59:15;;;;;;;12.3;5.8;;;;;;;13.12;56.26074;964.5784;;;;
2019/04/29 11:01:54;;;;;;;14.5;6.8;;;;;;;13.08;58.2832;964.5681;;;;
2019/04/29 11:04:06;;;;;;;15.2;7.7;;;;;;;12.86;58.83105;964.664;;;;
2019/04/29 11:06:31;;;;;;;19.7;8.3;;;;;;;12.98;58.48145;964.582;;;;
2019/04/29 11:09:12;;;;;;;16.3;7.7;;;;;;;13.38;57.70996;964.5002;;;;
2019/04/29 11:11:23;;;;;;;12.9;6.6;;;;;;;13.48;56.21289;964.469;;;;
2019/04/29 11:13:47;;;;;;;14;5.9;;;;;;;13.51;55.51953;964.516;;;;
2019/04/29 11:16:12;;;;;;;11.5;6.4;;;;;;;13.65;56.20996;964.4869;;;;
2019/04/29 11:18:37;;;;;;;11.1;6.5;;;;;;;13.79;56.14551;964.4883;;;;
2019/04/29 11:21:02;;;;;;;13.2;6.4;;;;;;;13.5;56.08496;964.3918;;;;
2019/04/29 11:25:59;;;;;;;14.3;6.8;;;;;;;13.84;52.9043;964.3605;;;;
2019/04/29 11:28:18;;;;;;;13.3;6.6;;;;;;;13.73;54.41406;964.3409;;;;
2019/04/29 11:30:42;;;;;;;12.9;7.3;;;;;;;13.99;54.83691;964.3233;;;;
2019/04/29 11:33:21;;;;;;;12.7;6;;;;;;;13.5;54.03223;964.231;;;;
2019/04/29 11:35:41;;;;;;;8.9;6;;;;;;;13.6;53.70215;964.1997;;;;
2019/04/29 11:38:00;;;;;;;11.7;6;;;;;;;13.86;53.20313;964.2217;;;;
2019/04/29 11:40:25;;;;;;;12.9;6.3;;;;;;;13.9;51.9668;964.2615;;;;
2019/04/29 11:42:50;;;;;;;14.1;6.6;;;;;;;13.59;53.39453;964.183;;;;
2019/04/29 11:45:17;;;;;;;13.7;6.3;;;;;;;13.56;53.94531;964.2328;;;;
2019/04/29 11:48:07;;;;;;;16.7;6.6;;;;;;;13.62;56.87891;964.231;;;;
2019/04/29 11:50:39;;;;;;;14.5;6.7;;;;;;;13.35;54.98047;964.2626;;;;
2019/04/29 11:52:58;;;;;;;12.8;6.2;;;;;;;13.35;55.39355;964.2181;;;;
2019/04/29 11:55:23;;;;;;;11.4;6.1;;;;;;;13.49;54.63281;964.1368;;;;
2019/04/29 11:57:53;;;;;;;11.8;6.1;;;;;;;13.41;55.19922;964.1559;;;;
2019/04/29 12:02:47;;;;;;;14.8;6.7;;;;;;;13.48;57.62891;964.129;;;;
2019/04/29 12:05:27;;;;;;;12.8;6.2;;;;;;;13.18;55.60742;964.1155;;;;
2019/04/29 12:07:37;;;;;;;10.6;5.6;;;;;;;13.03;56.83887;964.0944;;;;
2019/04/29 12:10:02;;;;;;;10;5.4;;;;;;;12.97;55.69824;964.1836;;;;
2019/04/29 12:15:27;;;;;;;9.7;5.3;;;;;;;12.48;58.20313;964.2318;;;;
2019/04/29 12:18:38;;;;;;;9.7;5.2;;;;;;;12.76;57.32129;964.1384;;;;
2019/04/29 12:20:16;;;;;;;10.5;5.5;;;;;;;13.11;56.87207;964.1445;;;;
2019/04/29 12:22:30;;;;;;;8.9;5.1;;;;;;;13.07;55.8291;964.1303;;;;
2019/04/29 12:24:55;;;;;;;12.5;6.8;;;;;;;12.82;56.83301;964.0842;;;;
2019/04/29 12:27:24;;;;;;;10.8;5.7;;;;;;;12.58;57.7334;964.1266;;;;
2019/04/29 12:29:49;;;;;;;9.9;4.8;;;;;;;12.67;57.79102;964.1247;;;;
2019/04/29 12:32:31;;;;;;;10.9;5.2;;;;;;;12.6;57.09863;964.137;;;;
2019/04/29 12:34:45;;;;;;;11.6;5.3;;;;;;;12.88;57.39551;964.0303;;;;
2019/04/29 12:37:11;;;;;;;9.9;4.9;;;;;;;12.97;57.10059;964.0137;;;;
2019/04/29 12:40:18;;;;;;;11.7;5.1;;;;;;;13.36;58.81641;963.9331;;;;
2019/04/29 12:42:29;;;;;;;9.6;5.1;;;;;;;13.65;55.21875;963.9285;;;;
2019/04/29 12:44:29;;;;;;;9.1;4.8;;;;;;;13.57;56.80273;963.89;;;;
2019/04/29 12:46:49;;;;;;;10.5;4.8;;;;;;;13.56;54.75977;963.8482;;;;
2019/04/29 12:49:10;;;;;;;10.4;4.8;;;;;;;13.77;55.42285;963.9506;;;;
2019/04/29 12:51:35;;;;;;;9.9;4.7;;;;;;;13.96;53.83008;963.8617;;;;
2019/04/29 12:54:00;;;;;;;11.8;4.9;;;;;;;14.05;54.37207;963.876;;;;
2019/04/29 12:56:36;;;;;;;9.5;4.6;;;;;;;13.41;53.63281;963.8146;;;;
2019/04/29 12:58:51;;;;;;;9;4.5;;;;;;;13.27;54.22754;963.845;;;;
2019/04/29 13:01:47;;;;;;;11.3;4.7;;;;;;;12.92;55.38574;963.8611;;;;
2019/04/29 13:03:51;;;;;;;8.2;4.3;;;;;;;13.03;53.39648;963.8314;;;;
2019/04/29 13:06:13;;;;;;;8.6;4.7;;;;;;;13.14;54.23438;963.861;;;;
2019/04/29 13:08:43;;;;;;;13.2;4.4;;;;;;;13.01;54.24316;963.8134;;;;
2019/04/29 13:11:04;;;;;;;11.9;4.7;;;;;;;13.14;56.79297;963.8348;;;;
2019/04/29 13:13:24;;;;;;;8.8;4.9;;;;;;;13.19;56.76367;963.8824;;;;
2019/04/29 13:18:29;;;;;;;12.8;5.3;;;;;;;13.05;56.73438;963.7856;;;;
2019/04/29 13:20:46;;;;;;;12.2;5.1;;;;;;;13.26;56.24219;963.8908;;;;
2019/04/29 13:23:11;;;;;;;12.2;5.3;;;;;;;12.9;59.00098;963.851;;;;
2019/04/29 13:25:36;;;;;;;9.4;5.3;;;;;;;12.9;58.6123;963.8301;;;;
2019/04/29 13:28:01;;;;;;;11.2;5.5;;;;;;;12.86;59.23047;963.7809;;;;
2019/04/29 13:30:26;;;;;;;13;5.9;;;;;;;12.73;57.64746;963.791;;;;
2019/04/29 13:32:51;;;;;;;9.9;5.3;;;;;;;12.86;58.44238;963.8239;;;;
2019/04/29 13:35:16;;;;;;;9.6;4.9;;;;;;;12.88;56.44141;963.7151;;;;
2019/04/29 13:37:42;;;;;;;8;4.8;;;;;;;12.85;56.96777;963.6555;;;;
2019/04/29 13:40:07;;;;;;;10.5;4.9;;;;;;;13.25;56.03027;963.6348;;;;
2019/04/29 13:42:32;;;;;;;8.3;5.1;;;;;;;13.1;59.32227;963.694;;;;
2019/04/29 13:44:58;;;;;;;9.4;5.6;;;;;;;13.14;56.96973;963.7001;;;;
2019/04/29 13:47:33;;;;;;;8.3;5.3;;;;;;;13.09;57.70703;963.6689;;;;
2019/04/29 13:49:57;;;;;;;8.6;5.6;;;;;;;12.83;56.08105;963.6375;;;;
2019/04/29 13:52:15;;;;;;;8.5;5.4;;;;;;;12.68;58.81836;963.6633;;;;
2019/04/29 13:54:39;;;;;;;9;5.5;;;;;;;12.76;59.27637;963.616;;;;
2019/04/29 13:57:23;;;;;;;10.4;6;;;;;;;12.94;59.83105;963.5658;;;;
2019/04/29 14:02:58;;;;;;;11.3;6.1;;;;;;;12.82;58.81348;963.5787;;;;
2019/04/29 14:05:19;;;;;;;10.7;6.3;;;;;;;13.23;58.83301;963.5435;;;;
2019/04/29 14:07:59;;;;;;;10.1;5.6;;;;;;;13.22;56.96875;963.567;;;;
2019/04/29 14:10:25;;;;;;;10.6;5.6;;;;;;;13.19;56.22168;963.5818;;;;
2019/04/29 14:13:09;;;;;;;10.9;6.1;;;;;;;13.26;55.12305;963.5064;;;;
2019/04/29 14:15:35;;;;;;;10.2;6.5;;;;;;;13.51;55.41406;963.492;;;;
2019/04/29 14:18:00;;;;;;;13.3;6.4;;;;;;;13.13;56.82715;963.4139;;;;
2019/04/29 14:20:25;;;;;;;9.7;6.1;;;;;;;13.3;56.33008;963.4263;;;;
2019/04/29 14:23:08;;;;;;;10.8;5.5;;;;;;;13.48;53.7334;963.389;;;;
2019/04/29 14:25:36;;;;;;;7.1;5.1;;;;;;;13.41;52.64063;963.4014;;;;
2019/04/29 14:28:21;;;;;;;8.6;5.1;;;;;;;13.21;53.40625;963.2863;;;;
2019/04/29 14:30:47;;;;;;;8.4;5;;;;;;;13.37;52.21094;963.313;;;;
2019/04/29 14:33:12;;;;;;;9.9;5.2;;;;;;;13.25;52.38574;963.265;;;;
2019/04/29 14:35:41;;;;;;;9.4;5.9;;;;;;;13.47;52.09375;963.2688;;;;
2019/04/29 14:38:02;;;;;;;11;5.3;;;;;;;13.46;51.6084;963.1735;;;;
2019/04/29 14:40:27;;;;;;;8.5;5.3;;;;;;;13.23;51.35742;963.2637;;;;
2019/04/29 14:43:38;;;;;;;10.1;5.2;;;;;;;13.24;51.86621;963.2662;;;;
2019/04/29 14:45:38;;;;;;;9;4.9;;;;;;;13.46;52.63379;963.231;;;;
2019/04/29 14:48:27;;;;;;;10.7;5.3;;;;;;;13.34;53.32813;963.2009;;;;
2019/04/29 14:50:07;;;;;;;7.6;4.8;;;;;;;13.2;52.54395;963.2523;;;;
2019/04/29 14:52:32;;;;;;;10.2;4.8;;;;;;;13.15;53.34082;963.296;;;;
2019/04/29 14:54:57;;;;;;;9.8;5.1;;;;;;;13.14;54.27148;963.2898;;;;